Time;durP1;ratioP1;P1;durP2;ratioP2;P2;SDS_P1;SDS_P2;PMS_P1;PMS_P2;Temp;Humidity;BMP_temperature;BMP_pressure;BME280_temperature;BME280_humidity;BME280_pressure;Samples;Min_cycle;Max_cycle;Signal;HPM_P1;HPM_P2
2023/05/19 00:00:03;;;;;;;0.77;0.77;;;;;;;11.56;58.10;98264.66;5126041;28;20506;-71
2023/05/19 00:02:38;;;;;;;0.43;0.43;;;;;;;11.54;58.46;98261.31;5128169;27;20051;-71
2023/05/19 00:05:07;;;;;;;0.70;0.70;;;;;;;11.46;58.71;98261.41;5130998;27;20047;-70
2023/05/19 00:07:36;;;;;;;0.68;0.68;;;;;;;11.49;58.24;98261.06;5130019;27;20046;-69
2023/05/19 00:10:04;;;;;;;0.20;0.20;;;;;;;11.38;59.04;98257.00;5119364;27;20410;-70
2023/05/19 00:12:34;;;;;;;0.63;0.63;;;;;;;11.34;59.04;98259.19;5127824;27;20126;-71
2023/05/19 00:15:02;;;;;;;0.60;0.60;;;;;;;11.31;59.21;98258.75;5131034;28;20028;-71
2023/05/19 00:17:29;;;;;;;0.70;0.70;;;;;;;11.27;59.27;98255.59;5126441;28;20036;-71
2023/05/19 00:19:57;;;;;;;0.60;0.60;;;;;;;11.23;59.89;98256.97;5128195;28;20100;-70
2023/05/19 00:22:25;;;;;;;0.10;0.10;;;;;;;11.21;60.02;98256.31;5125823;28;20459;-70
2023/05/19 00:24:52;;;;;;;0.85;0.85;;;;;;;11.13;60.05;98250.22;5130219;28;20054;-70
2023/05/19 00:27:20;;;;;;;0.20;0.20;;;;;;;11.13;59.87;98245.72;5130093;28;20410;-70
2023/05/19 00:29:49;;;;;;;0.77;0.77;;;;;;;11.13;60.00;98248.38;5130705;28;20047;-70
2023/05/19 00:32:16;;;;;;;0.60;0.60;;;;;;;11.05;60.49;98248.47;5126421;28;20058;-70
2023/05/19 00:34:46;;;;;;;0.73;0.73;;;;;;;10.95;60.95;98251.41;5112530;28;20497;-70
2023/05/19 00:37:14;;;;;;;0.47;0.47;;;;;;;10.93;61.18;98239.22;5127478;28;20096;-71
2023/05/19 00:39:42;;;;;;;1.17;1.17;;;;;;;10.99;60.43;98243.88;5131540;28;20051;-69
2023/05/19 00:42:09;;;;;;;0.70;0.70;;;;;;;10.94;60.76;98236.38;5133402;28;20083;-69
2023/05/19 00:44:40;;;;;;;0.70;0.70;;;;;;;10.90;60.91;98245.75;5134513;27;20520;-69
2023/05/19 00:47:09;;;;;;;0.65;0.65;;;;;;;10.94;60.68;98240.88;5126701;27;20046;-70
2023/05/19 00:49:37;;;;;;;0.82;0.82;;;;;;;10.81;61.40;98236.16;5116530;27;20046;-70
2023/05/19 00:52:06;;;;;;;0.60;0.60;;;;;;;10.70;61.77;98233.91;5134930;27;20031;-70
2023/05/19 00:54:34;;;;;;;0.55;0.55;;;;;;;10.64;62.30;98231.97;5135841;27;20043;-70
2023/05/19 00:57:03;;;;;;;0.65;0.65;;;;;;;10.76;61.95;98225.19;5104720;28;20036;-71
2023/05/19 00:59:30;;;;;;;0.57;0.57;;;;;;;10.79;62.15;98230.19;5131453;27;20118;-69
2023/05/19 01:01:58;;;;;;;0.20;0.20;;;;;;;10.84;62.19;98226.97;5133151;27;20379;-71
2023/05/19 01:04:28;;;;;;;0.50;0.50;;;;;;;10.90;61.68;98226.25;5132753;27;20054;-71
2023/05/19 01:06:56;;;;;;;0.77;0.63;;;;;;;10.79;62.61;98222.19;5132822;27;20051;-70
2023/05/19 01:09:24;;;;;;;0.70;0.70;;;;;;;10.49;63.89;98223.91;5112173;27;20046;-71
2023/05/19 01:11:52;;;;;;;0.73;0.73;;;;;;;10.51;64.24;98218.38;5126118;27;20114;-70
2023/05/19 01:14:20;;;;;;;0.60;0.60;;;;;;;10.45;64.55;98221.78;5110672;27;20058;-71
2023/05/19 01:16:55;;;;;;;0.82;0.82;;;;;;;10.30;65.45;98219.03;5134640;27;20047;-71
2023/05/19 01:19:45;;;;;;;0.50;0.50;;;;;;;10.20;65.99;98213.94;5135000;27;20122;-70
2023/05/19 01:22:21;;;;;;;0.57;0.57;;;;;;;10.31;65.87;98220.72;5127984;27;20508;-71
2023/05/19 01:25:18;;;;;;;0.63;0.63;;;;;;;10.37;65.56;98213.84;5099064;27;20083;-71
2023/05/19 01:28:15;;;;;;;0.60;0.60;;;;;;;10.44;65.27;98210.28;5133189;27;20489;-71
2023/05/19 01:30:45;;;;;;;0.57;0.57;;;;;;;10.41;65.62;98215.13;5139867;27;20115;-70
2023/05/19 01:33:14;;;;;;;0.68;0.68;;;;;;;10.35;65.95;98224.69;5133685;27;20031;-71
2023/05/19 01:35:43;;;;;;;0.57;0.57;;;;;;;10.33;65.91;98212.53;5108949;27;20050;-72
2023/05/19 01:38:12;;;;;;;0.60;0.60;;;;;;;10.13;66.70;98220.13;5130600;27;20039;-70
2023/05/19 01:40:41;;;;;;;0.65;0.65;;;;;;;10.10;66.74;98220.47;5112835;27;20059;-70
2023/05/19 01:43:10;;;;;;;0.88;0.88;;;;;;;10.17;66.63;98218.78;5114280;27;20487;-70
2023/05/19 01:45:38;;;;;;;0.75;0.75;;;;;;;10.18;66.34;98215.94;5125359;27;20504;-70
2023/05/19 01:48:07;;;;;;;0.20;0.20;;;;;;;10.24;65.87;98219.75;5114405;27;20447;-70
2023/05/19 01:50:38;;;;;;;;;;;;;;;10.19;66.25;98208.78;5115610;27;20054;-70
2023/05/19 01:53:06;;;;;;;0.47;0.47;;;;;;;10.16;66.12;98217.97;5115111;27;19919;-69
2023/05/19 01:55:34;;;;;;;1.02;1.02;;;;;;;10.16;65.98;98215.28;5115313;27;20047;-70
2023/05/19 01:58:07;;;;;;;0.68;0.68;;;;;;;10.13;66.39;98217.47;5129424;27;20066;-70
2023/05/19 02:00:44;;;;;;;0.73;0.73;;;;;;;10.16;65.94;98211.78;5112604;28;20047;-70
2023/05/19 02:03:25;;;;;;;0.52;0.52;;;;;;;10.18;65.58;98209.78;5105610;28;20306;-70
2023/05/19 02:05:56;;;;;;;0.65;0.65;;;;;;;10.14;65.59;98208.47;5113413;27;20039;-69
2023/05/19 02:08:27;;;;;;;0.68;0.68;;;;;;;9.96;66.51;98205.25;5130165;27;20031;-70
2023/05/19 02:11:00;;;;;;;0.60;0.60;;;;;;;9.86;66.81;98210.81;5112996;27;20047;-69
2023/05/19 02:13:31;;;;;;;0.17;0.17;;;;;;;9.75;67.30;98211.19;5127158;27;20409;-70
2023/05/19 02:16:03;;;;;;;0.60;0.60;;;;;;;9.76;67.10;98208.31;5108122;27;20130;-70
2023/05/19 02:18:34;;;;;;;0.95;0.95;;;;;;;9.67;67.33;98212.03;5113884;27;20438;-70
2023/05/19 02:21:01;;;;;;;0.52;0.52;;;;;;;9.56;67.66;98201.75;5133215;27;20501;-68
2023/05/19 02:23:29;;;;;;;0.77;0.77;;;;;;;9.76;66.66;98212.84;5132468;27;20053;-70
2023/05/19 02:25:57;;;;;;;0.60;0.60;;;;;;;9.69;66.59;98202.03;5129876;27;20126;-69
2023/05/19 02:28:27;;;;;;;0.70;0.70;;;;;;;9.65;66.85;98197.25;5126247;27;20027;-69
2023/05/19 02:30:54;;;;;;;0.30;0.20;;;;;;;9.59;67.42;98201.41;5112753;27;20402;-70
2023/05/19 02:33:24;;;;;;;0.75;0.75;;;;;;;9.26;69.37;98192.72;5123054;27;20042;-70
2023/05/19 02:35:53;;;;;;;0.65;0.65;;;;;;;9.36;68.93;98192.50;5121186;27;20142;-70
2023/05/19 02:38:21;;;;;;;0.65;0.65;;;;;;;9.34;69.22;98194.53;5114309;27;20069;-70
2023/05/19 02:40:48;;;;;;;0.20;0.20;;;;;;;9.37;69.07;98204.81;5117662;27;20467;-70
2023/05/19 02:43:16;;;;;;;0.75;0.75;;;;;;;9.33;69.31;98204.34;5105639;28;20050;-70
2023/05/19 02:45:44;;;;;;;0.70;0.70;;;;;;;9.27;69.63;98198.88;5126375;27;20070;-70
2023/05/19 02:48:12;;;;;;;0.70;0.70;;;;;;;9.16;70.30;98197.41;5128957;27;20042;-70
2023/05/19 02:50:39;;;;;;;0.75;0.75;;;;;;;9.28;69.43;98197.88;5118278;27;20040;-70
2023/05/19 02:53:08;;;;;;;0.88;0.88;;;;;;;9.32;69.27;98194.72;5109037;27;20035;-70
2023/05/19 02:55:36;;;;;;;0.50;0.50;;;;;;;9.24;69.73;98200.03;5114539;27;20128;-70
2023/05/19 02:58:04;;;;;;;0.60;0.60;;;;;;;9.22;69.88;98195.91;5113541;27;20866;-70
2023/05/19 03:00:31;;;;;;;0.65;0.65;;;;;;;9.22;69.70;98202.06;5127344;27;20051;-69
2023/05/19 03:03:01;;;;;;;0.40;0.40;;;;;;;9.20;69.79;98196.91;5106443;27;20039;-69
2023/05/19 03:05:29;;;;;;;0.50;0.50;;;;;;;9.10;70.28;98200.75;5130669;27;20043;-68
2023/05/19 03:07:57;;;;;;;0.63;0.63;;;;;;;9.06;70.43;98197.59;5102173;27;20078;-69
2023/05/19 03:10:26;;;;;;;0.82;0.82;;;;;;;9.15;69.99;98198.41;5110868;27;20054;-70
2023/05/19 03:12:53;;;;;;;0.55;0.55;;;;;;;9.05;70.45;98195.94;5131982;27;20116;-68
2023/05/19 03:15:22;;;;;;;0.73;0.73;;;;;;;8.98;70.84;98194.13;5130841;27;20039;-69
2023/05/19 03:17:50;;;;;;;0.70;0.70;;;;;;;8.86;71.35;98196.31;5130768;27;20043;-69
2023/05/19 03:20:18;;;;;;;0.60;0.60;;;;;;;8.81;71.44;98207.47;5113440;27;20050;-69
2023/05/19 03:22:46;;;;;;;0.82;0.82;;;;;;;8.86;71.34;98206.13;5112956;27;20062;-70
2023/05/19 03:25:13;;;;;;;0.80;0.80;;;;;;;8.71;71.98;98208.66;5112652;27;20043;-70
2023/05/19 03:27:43;;;;;;;0.75;0.75;;;;;;;9.04;69.76;98199.59;5112947;27;20051;-70
2023/05/19 03:30:12;;;;;;;0.20;0.20;;;;;;;9.13;69.29;98203.94;5110143;27;20456;-70
2023/05/19 03:32:52;;;;;;;0.80;0.80;;;;;;;9.02;69.57;98203.44;5113167;27;20057;-69
2023/05/19 03:35:21;;;;;;;0.65;0.65;;;;;;;8.87;70.39;98203.28;5134047;27;20106;-70
2023/05/19 03:37:48;;;;;;;0.65;0.65;;;;;;;8.99;69.30;98201.94;5104405;27;20224;-70
2023/05/19 03:40:17;;;;;;;0.30;0.30;;;;;;;9.09;68.74;98202.59;5114040;27;20470;-70
2023/05/19 03:42:46;;;;;;;0.55;0.55;;;;;;;9.03;69.17;98213.09;5106654;27;20093;-70
2023/05/19 03:45:14;;;;;;;0.60;0.60;;;;;;;8.96;69.10;98209.44;5112522;27;20042;-70
2023/05/19 03:47:45;;;;;;;0.73;0.73;;;;;;;8.86;70.07;98214.09;5108146;27;20036;-70
2023/05/19 03:50:47;;;;;;;0.63;0.63;;;;;;;8.73;70.64;98218.09;5108563;27;20134;-70
2023/05/19 03:53:19;;;;;;;0.43;0.43;;;;;;;8.55;71.54;98225.44;5110649;28;20491;-70
2023/05/19 03:55:48;;;;;;;0.68;0.68;;;;;;;8.61;70.58;98221.28;5112682;28;20043;-70
2023/05/19 03:58:17;;;;;;;0.60;0.60;;;;;;;8.53;71.05;98219.44;5131433;27;20046;-70
2023/05/19 04:00:45;;;;;;;0.80;0.80;;;;;;;8.59;70.86;98224.13;5107271;27;20122;-71
2023/05/19 04:03:13;;;;;;;0.75;0.75;;;;;;;8.56;71.13;98231.59;5124661;27;20031;-71
2023/05/19 04:05:41;;;;;;;0.60;0.60;;;;;;;8.62;70.89;98231.75;5112892;27;20043;-71
2023/05/19 04:08:09;;;;;;;0.63;0.63;;;;;;;8.49;72.05;98226.13;5132078;27;20081;-70
2023/05/19 04:10:36;;;;;;;0.20;0.20;;;;;;;8.44;72.00;98226.59;5108108;28;20417;-70
2023/05/19 04:13:04;;;;;;;0.60;0.60;;;;;;;8.49;71.87;98226.13;5101998;27;20577;-69
2023/05/19 04:15:33;;;;;;;0.70;0.70;;;;;;;8.63;70.97;98228.09;5112970;28;20126;-69
2023/05/19 04:18:01;;;;;;;1.25;1.25;;;;;;;8.61;70.88;98230.09;5110089;28;20057;-71
2023/05/19 04:20:29;;;;;;;0.75;0.75;;;;;;;8.71;70.66;98238.75;5122544;28;20070;-69
2023/05/19 04:22:57;;;;;;;0.88;0.88;;;;;;;8.76;70.56;98238.25;5114147;28;20047;-70
2023/05/19 04:25:27;;;;;;;0.90;0.90;;;;;;;8.65;70.96;98233.25;5107396;28;20067;-69
2023/05/19 04:27:56;;;;;;;0.47;0.47;;;;;;;8.62;71.40;98230.91;5105659;28;20529;-70
2023/05/19 04:30:25;;;;;;;0.60;0.60;;;;;;;8.69;70.79;98227.44;5108303;28;20040;-69
2023/05/19 04:32:54;;;;;;;0.70;0.70;;;;;;;8.68;71.45;98241.75;5112269;28;20100;-71
2023/05/19 04:35:22;;;;;;;0.82;0.82;;;;;;;8.63;71.85;98245.88;5112003;28;20031;-69
2023/05/19 04:37:53;;;;;;;0.60;0.60;;;;;;;8.76;70.99;98246.22;5097363;28;20580;-69
2023/05/19 04:40:24;;;;;;;0.73;0.73;;;;;;;8.74;71.11;98241.06;5110752;28;20044;-69
2023/05/19 04:42:52;;;;;;;0.63;0.63;;;;;;;8.68;71.41;98232.94;5114936;28;20047;-70
2023/05/19 04:45:22;;;;;;;0.55;0.55;;;;;;;8.55;71.92;98245.88;5103928;28;20069;-70
2023/05/19 04:47:57;;;;;;;0.50;0.50;;;;;;;8.56;71.82;98239.56;5111671;28;20085;-70
2023/05/19 04:50:25;;;;;;;0.88;0.88;;;;;;;8.50;72.07;98242.91;5131981;28;20045;-70
2023/05/19 04:52:52;;;;;;;0.52;0.52;;;;;;;8.51;72.19;98244.56;5108664;28;20142;-71
2023/05/19 04:55:20;;;;;;;0.65;0.65;;;;;;;8.57;71.89;98238.56;5109904;28;20085;-70
2023/05/19 04:57:49;;;;;;;0.60;0.60;;;;;;;8.72;71.01;98242.25;5104498;28;20047;-70
2023/05/19 05:00:20;;;;;;;0.75;0.75;;;;;;;8.61;71.77;98234.59;5102279;28;20048;-70
2023/05/19 05:02:59;;;;;;;0.10;0.10;;;;;;;8.44;72.06;98244.38;5111672;28;20763;-69
2023/05/19 05:05:29;;;;;;;0.70;0.70;;;;;;;8.29;73.06;98236.22;5112938;28;20126;-70
2023/05/19 05:07:57;;;;;;;0.60;0.60;;;;;;;8.25;73.18;98242.84;5110764;28;20054;-70
2023/05/19 05:10:27;;;;;;;0.65;0.65;;;;;;;8.19;73.32;98234.69;5113989;28;20039;-69
2023/05/19 05:12:56;;;;;;;0.82;0.82;;;;;;;8.13;73.54;98241.47;5108122;28;20066;-70
2023/05/19 05:15:27;;;;;;;0.70;0.70;;;;;;;8.16;73.54;98249.13;5103804;28;20042;-70
2023/05/19 05:17:56;;;;;;;0.70;0.70;;;;;;;8.17;73.45;98239.34;5110775;28;20047;-70
2023/05/19 05:20:27;;;;;;;0.98;0.98;;;;;;;8.22;73.23;98240.50;5096710;28;20101;-70
2023/05/19 05:22:56;;;;;;;1.15;1.15;;;;;;;8.28;72.84;98234.53;5130180;28;20075;-70
2023/05/19 05:25:25;;;;;;;0.45;0.45;;;;;;;8.36;72.62;98231.91;5110268;28;20043;-71
2023/05/19 05:27:53;;;;;;;0.63;0.63;;;;;;;8.47;72.30;98230.75;5122117;28;20048;-70
2023/05/19 05:30:20;;;;;;;0.80;0.80;;;;;;;8.75;70.89;98231.25;5110292;27;20100;-69
2023/05/19 05:32:49;;;;;;;0.30;0.30;;;;;;;8.61;71.81;98237.25;5116509;27;20513;-70
2023/05/19 05:35:45;;;;;;;0.80;0.80;;;;;;;8.67;71.54;98228.59;5125839;27;20046;-70
2023/05/19 05:38:14;;;;;;;0.65;0.65;;;;;;;8.78;71.33;98237.06;5106228;28;20082;-70
2023/05/19 05:40:42;;;;;;;0.57;0.57;;;;;;;8.91;70.71;98236.56;5113653;27;20044;-70
2023/05/19 05:43:09;;;;;;;0.70;0.70;;;;;;;8.89;70.85;98224.44;5106686;28;20544;-70
2023/05/19 05:45:44;;;;;;;0.68;0.68;;;;;;;9.00;70.73;98222.25;5113173;27;21629;-69
2023/05/19 05:48:12;;;;;;;0.70;0.70;;;;;;;9.10;70.45;98219.41;5134445;27;20046;-69
2023/05/19 05:50:40;;;;;;;0.20;0.20;;;;;;;9.29;70.15;98207.53;5131530;27;20397;-69
2023/05/19 05:53:12;;;;;;;0.68;0.68;;;;;;;9.48;69.57;98221.28;5113311;28;20039;-68
2023/05/19 05:55:41;;;;;;;0.73;0.73;;;;;;;9.64;69.00;98215.06;5120965;27;20114;-69
2023/05/19 05:58:09;;;;;;;0.63;0.63;;;;;;;9.67;68.85;98212.03;5122132;28;20066;-70
2023/05/19 06:00:37;;;;;;;0.60;0.60;;;;;;;9.82;68.36;98212.13;5140622;27;20035;-68
2023/05/19 06:03:05;;;;;;;0.60;0.60;;;;;;;9.87;68.23;98213.25;5122923;27;20066;-71
2023/05/19 06:05:33;;;;;;;0.70;0.70;;;;;;;9.99;68.13;98212.88;5121269;27;20043;-68
2023/05/19 06:08:01;;;;;;;0.55;0.55;;;;;;;9.98;68.11;98209.38;5143804;27;20102;-68
2023/05/19 06:10:30;;;;;;;0.90;0.75;;;;;;;10.05;68.10;98212.19;5126074;27;20073;-71
2023/05/19 06:12:59;;;;;;;0.60;0.60;;;;;;;10.16;67.53;98206.44;5125731;27;20071;-69
2023/05/19 06:15:26;;;;;;;0.55;0.20;;;;;;;10.18;67.18;98207.13;5123510;27;20479;-69
2023/05/19 06:18:00;;;;;;;0.45;0.45;;;;;;;10.29;65.51;98209.38;5117479;27;20520;-69
2023/05/19 06:20:28;;;;;;;0.73;0.73;;;;;;;10.45;64.45;98206.59;5114327;27;20058;-69
2023/05/19 06:22:57;;;;;;;0.80;0.80;;;;;;;10.60;64.34;98204.78;5113394;27;20105;-69
2023/05/19 06:25:26;;;;;;;0.57;0.57;;;;;;;10.64;63.94;98205.28;5104086;27;20036;-69
2023/05/19 06:27:56;;;;;;;0.20;0.20;;;;;;;10.80;64.52;98202.44;5113524;27;20464;-69
2023/05/19 06:30:24;;;;;;;0.80;0.80;;;;;;;10.87;64.42;98203.41;5114952;27;20039;-69
2023/05/19 06:33:12;;;;;;;0.70;0.70;;;;;;;10.92;64.25;98198.34;5116290;27;20042;-69
2023/05/19 06:35:39;;;;;;;0.80;0.80;;;;;;;11.03;63.91;98205.91;5109074;27;20046;-69
2023/05/19 06:38:07;;;;;;;0.60;0.60;;;;;;;11.12;63.50;98203.16;5112317;28;20035;-69
2023/05/19 06:40:35;;;;;;;0.50;0.50;;;;;;;11.22;63.23;98199.19;5112849;27;20489;-69
2023/05/19 06:43:04;;;;;;;0.63;0.63;;;;;;;11.36;62.63;98202.88;5119414;27;20074;-69
2023/05/19 06:45:53;;;;;;;0.70;0.70;;;;;;;11.50;62.53;98199.41;5114053;27;20039;-69
2023/05/19 06:48:22;;;;;;;0.65;0.65;;;;;;;11.48;62.34;98205.94;5107241;28;20503;-69
2023/05/19 06:50:50;;;;;;;0.50;0.50;;;;;;;11.61;62.73;98200.78;5111604;27;20523;-69
2023/05/19 06:53:19;;;;;;;0.52;0.52;;;;;;;11.70;62.54;98202.31;5112672;27;20044;-69
2023/05/19 06:55:49;;;;;;;0.70;0.70;;;;;;;11.83;61.44;98202.53;5112320;27;20043;-69
2023/05/19 06:58:28;;;;;;;1.00;1.00;;;;;;;11.97;61.40;98206.16;5113157;27;20043;-69
2023/05/19 07:00:57;;;;;;;0.20;0.20;;;;;;;12.09;61.68;98201.97;5117427;27;20402;-69
2023/05/19 07:03:29;;;;;;;0.63;0.63;;;;;;;12.25;61.55;98200.94;5107438;28;20074;-69
2023/05/19 07:05:58;;;;;;;0.70;0.70;;;;;;;12.32;61.15;98197.28;5113594;27;20047;-69
2023/05/19 07:08:26;;;;;;;0.70;0.70;;;;;;;12.45;59.19;98199.28;5105591;28;20051;-69
2023/05/19 07:10:55;;;;;;;0.52;0.52;;;;;;;12.47;58.90;98194.53;5112475;27;20514;-69
2023/05/19 07:13:22;;;;;;;0.70;0.70;;;;;;;12.53;58.12;98201.00;5125333;27;20122;-69
2023/05/19 07:15:55;;;;;;;0.50;0.50;;;;;;;12.53;58.27;98204.50;5112516;27;20039;-70
2023/05/19 07:18:24;;;;;;;0.40;0.40;;;;;;;12.57;58.04;98202.25;5112479;27;20092;-69
2023/05/19 07:20:52;;;;;;;0.93;0.93;;;;;;;12.64;58.07;98197.81;5132657;27;20097;-69
2023/05/19 07:23:20;;;;;;;0.60;0.60;;;;;;;12.66;57.73;98193.91;5107091;27;20537;-69
2023/05/19 07:25:48;;;;;;;0.70;0.70;;;;;;;12.64;57.97;98200.47;5112008;27;20044;-69
2023/05/19 07:28:15;;;;;;;0.70;0.70;;;;;;;12.73;58.16;98197.47;5129572;27;20042;-70
2023/05/19 07:30:43;;;;;;;0.10;0.10;;;;;;;12.77;57.13;98201.41;5129529;27;20461;-69
2023/05/19 07:33:12;;;;;;;0.65;0.65;;;;;;;12.83;56.79;98197.13;5131592;27;20037;-70
2023/05/19 07:35:40;;;;;;;0.57;0.57;;;;;;;12.92;56.77;98192.47;5131237;27;20037;-70
2023/05/19 07:38:07;;;;;;;0.57;0.57;;;;;;;12.95;56.67;98197.44;5126811;27;20096;-72
2023/05/19 07:40:35;;;;;;;0.75;0.75;;;;;;;13.04;56.64;98180.19;5131835;27;20035;-70
2023/05/19 07:43:03;;;;;;;0.68;0.68;;;;;;;13.18;55.41;98181.97;5122221;27;20491;-69
2023/05/19 07:45:30;;;;;;;0.60;0.60;;;;;;;13.39;55.36;98179.19;5130538;27;20482;-71
2023/05/19 07:47:58;;;;;;;0.73;0.73;;;;;;;13.57;54.83;98171.47;5130073;27;20058;-69
2023/05/19 07:50:27;;;;;;;0.68;0.68;;;;;;;13.75;55.64;98170.09;5131539;27;20489;-69
2023/05/19 07:52:54;;;;;;;0.50;0.50;;;;;;;13.95;54.49;98168.28;5123875;27;20044;-69
2023/05/19 07:55:22;;;;;;;0.43;0.43;;;;;;;14.04;54.62;98172.44;5124497;27;20489;-70
2023/05/19 07:57:50;;;;;;;0.60;0.60;;;;;;;14.17;53.84;98172.50;5131188;27;20035;-70
2023/05/19 08:00:18;;;;;;;0.40;0.40;;;;;;;14.28;53.60;98160.31;5130673;27;20057;-70
2023/05/19 08:02:45;;;;;;;0.70;0.70;;;;;;;14.37;51.94;98161.78;5131807;27;20039;-70
2023/05/19 08:05:13;;;;;;;0.60;0.60;;;;;;;14.60;51.18;98158.75;5130908;27;20489;-70
2023/05/19 08:07:42;;;;;;;0.47;0.47;;;;;;;14.82;50.89;98167.41;5132043;27;20122;-70
2023/05/19 08:10:10;;;;;;;0.52;0.52;;;;;;;15.02;49.94;98157.47;5132175;27;20087;-69
2023/05/19 08:12:37;;;;;;;0.68;0.68;;;;;;;15.16;49.45;98155.59;5131841;27;20122;-70
2023/05/19 08:15:06;;;;;;;0.50;0.50;;;;;;;15.27;48.39;98161.13;5129535;27;20383;-69
2023/05/19 08:17:33;;;;;;;0.10;0.10;;;;;;;15.37;49.20;98149.94;5100830;28;20432;-69
2023/05/19 08:20:02;;;;;;;0.50;0.50;;;;;;;15.40;49.22;98154.91;5132254;28;20096;-69
2023/05/19 08:22:30;;;;;;;0.50;0.50;;;;;;;15.65;48.52;98150.53;5134093;28;20039;-69
2023/05/19 08:25:00;;;;;;;0.40;0.40;;;;;;;15.69;47.89;98142.81;5133147;28;20043;-70
2023/05/19 08:27:27;;;;;;;0.80;0.80;;;;;;;15.87;47.74;98153.75;5134466;28;20045;-70
2023/05/19 08:29:56;;;;;;;0.52;0.52;;;;;;;15.96;47.58;98157.00;5132073;28;20047;-69
2023/05/19 08:32:23;;;;;;;0.50;0.50;;;;;;;16.03;46.37;98157.78;5128817;28;20047;-70
2023/05/19 08:34:51;;;;;;;0.40;0.40;;;;;;;15.79;46.38;98148.56;5113527;28;20074;-70
2023/05/19 08:37:19;;;;;;;0.52;0.52;;;;;;;15.94;47.28;98153.69;5141928;22;20048;-74
2023/05/19 08:39:47;;;;;;;0.47;0.47;;;;;;;16.01;47.26;98155.31;5089359;28;20048;-74
2023/05/19 08:42:15;;;;;;;0.10;0.10;;;;;;;15.90;47.62;98147.91;5078232;28;20402;-74
2023/05/19 08:44:43;;;;;;;0.68;0.68;;;;;;;15.94;47.49;98146.44;5093238;28;20043;-74
2023/05/19 08:47:12;;;;;;;0.60;0.60;;;;;;;16.00;47.83;98148.25;5088611;28;20046;-74
2023/05/19 08:49:43;;;;;;;0.55;0.55;;;;;;;16.13;47.70;98137.44;5110319;28;20143;-74
2023/05/19 08:52:19;;;;;;;0.50;0.50;;;;;;;16.41;46.29;98139.72;5110865;28;20044;-74
2023/05/19 08:54:52;;;;;;;0.63;0.63;;;;;;;16.40;46.21;98124.59;5109509;28;20048;-75
2023/05/19 08:57:20;;;;;;;;;;;;;;;16.52;46.37;98132.81;5111049;28;20043;-74
2023/05/19 08:59:49;;;;;;;0.40;0.40;;;;;;;16.69;46.48;98133.13;5106891;28;19938;-74
2023/05/19 09:02:16;;;;;;;0.10;0.10;;;;;;;16.91;44.89;98122.78;5103548;28;20409;-74
2023/05/19 09:04:46;;;;;;;0.50;0.50;;;;;;;16.84;45.72;98128.22;5109022;28;20039;-74
2023/05/19 09:07:14;;;;;;;0.10;0.10;;;;;;;16.99;45.48;98125.19;5113931;28;20443;-75
2023/05/19 09:09:42;;;;;;;0.32;0.32;;;;;;;17.15;46.34;98121.91;5110868;28;20521;-73
2023/05/19 09:12:10;;;;;;;0.43;0.43;;;;;;;17.09;45.25;98130.91;5107567;28;20490;-73
2023/05/19 09:14:40;;;;;;;0.45;0.45;;;;;;;17.09;45.69;98118.22;5112419;28;20054;-74
2023/05/19 09:17:07;;;;;;;0.60;0.60;;;;;;;17.13;44.57;98116.72;5114539;28;20031;-74
2023/05/19 09:19:35;;;;;;;0.73;0.73;;;;;;;17.14;44.95;98115.66;5104390;28;20487;-75
2023/05/19 09:22:03;;;;;;;0.50;0.50;;;;;;;17.12;45.71;98117.78;5109033;28;20126;-74
2023/05/19 09:24:31;;;;;;;0.35;0.35;;;;;;;17.20;45.58;98120.19;5116162;28;20054;-74
2023/05/19 09:26:59;;;;;;;0.45;0.45;;;;;;;17.22;45.59;98120.81;5115604;28;20063;-75
2023/05/19 09:29:27;;;;;;;0.45;0.45;;;;;;;17.20;45.18;98117.50;5115802;28;20051;-74
2023/05/19 09:31:59;;;;;;;0.40;0.40;;;;;;;17.00;45.66;98126.84;5109393;28;20031;-73
2023/05/19 09:34:27;;;;;;;0.50;0.50;;;;;;;17.13;45.76;98124.81;5082558;28;20055;-73
2023/05/19 09:36:56;;;;;;;0.30;0.30;;;;;;;17.11;45.08;98113.44;5113520;28;20039;-74
2023/05/19 09:39:24;;;;;;;0.50;0.50;;;;;;;16.84;44.54;98102.06;5101684;28;20036;-74
2023/05/19 09:41:53;;;;;;;0.47;0.47;;;;;;;16.43;44.28;98107.16;5099228;28;20048;-74
2023/05/19 09:44:22;;;;;;;0.60;0.60;;;;;;;16.49;45.15;98115.22;5092278;28;20126;-73
2023/05/19 09:46:52;;;;;;;0.50;0.50;;;;;;;16.64;45.67;98106.00;5113847;28;20039;-74
2023/05/19 09:49:22;;;;;;;0.10;0.10;;;;;;;16.81;45.55;98093.63;5112571;28;20496;-74
2023/05/19 09:51:51;;;;;;;0.10;0.10;;;;;;;17.01;44.22;98093.44;5111285;28;20429;-74
2023/05/19 09:54:20;;;;;;;0.40;0.40;;;;;;;17.13;44.58;98080.84;5113892;28;20067;-74
2023/05/19 09:56:51;;;;;;;0.40;0.40;;;;;;;17.23;44.53;98097.34;5112572;28;20038;-75
2023/05/19 09:59:20;;;;;;;0.55;0.55;;;;;;;17.38;43.78;98086.16;5110749;28;20123;-74
2023/05/19 10:01:48;;;;;;;0.32;0.32;;;;;;;17.65;42.94;98081.31;5114184;28;20071;-74
2023/05/19 10:04:16;;;;;;;0.32;0.32;;;;;;;17.83;42.28;98086.66;5095787;28;20066;-74
2023/05/19 10:06:46;;;;;;;0.50;0.50;;;;;;;17.92;41.66;98077.19;5113614;28;20044;-74
2023/05/19 10:09:14;;;;;;;0.40;0.40;;;;;;;18.08;41.88;98071.09;5113487;28;20059;-74
2023/05/19 10:11:43;;;;;;;0.52;0.52;;;;;;;17.97;42.09;98070.03;5112286;28;20082;-73
2023/05/19 10:14:10;;;;;;;0.50;0.50;;;;;;;18.04;40.85;98074.53;5112359;28;20043;-73
2023/05/19 10:16:38;;;;;;;0.50;0.50;;;;;;;18.23;40.52;98073.38;5106600;28;20044;-74
2023/05/19 10:19:07;;;;;;;0.43;0.43;;;;;;;18.09;41.30;98071.94;5112987;28;20043;-74
2023/05/19 10:21:35;;;;;;;0.40;0.40;;;;;;;17.84;41.61;98062.13;5108687;28;20050;-74
2023/05/19 10:24:04;;;;;;;0.30;0.30;;;;;;;18.03;42.11;98068.28;5106625;28;20035;-72
2023/05/19 10:26:32;;;;;;;0.35;0.35;;;;;;;17.96;41.61;98065.66;5112612;28;20051;-74
2023/05/19 10:29:00;;;;;;;0.55;0.55;;;;;;;18.22;41.31;98063.63;5101859;28;21239;-73
2023/05/19 10:31:28;;;;;;;0.60;0.60;;;;;;;17.97;41.28;98066.50;5112478;28;20515;-74
2023/05/19 10:34:12;;;;;;;0.52;0.52;;;;;;;17.52;41.59;98057.97;5104364;28;20506;-74
2023/05/19 10:36:45;;;;;;;0.38;0.38;;;;;;;17.73;41.65;98054.81;5111900;28;20036;-73
2023/05/19 10:39:18;;;;;;;0.43;0.43;;;;;;;18.00;41.13;98057.09;5112159;28;20050;-74
2023/05/19 10:41:47;;;;;;;0.10;0.10;;;;;;;18.27;41.32;98061.88;5111092;28;20440;-73
2023/05/19 10:44:21;;;;;;;0.40;0.40;;;;;;;18.37;41.26;98047.81;5106071;28;20055;-74
2023/05/19 10:46:49;;;;;;;0.32;0.32;;;;;;;18.53;40.75;98049.81;5105990;28;20044;-73
2023/05/19 10:49:20;;;;;;;0.30;0.30;;;;;;;18.49;40.08;98047.78;5108968;28;20059;-75
2023/05/19 10:51:48;;;;;;;0.55;0.55;;;;;;;18.36;40.72;98046.16;5085502;28;20105;-74
2023/05/19 10:54:19;;;;;;;0.38;0.38;;;;;;;18.40;40.83;98049.19;5108001;28;20043;-74
2023/05/19 10:56:47;;;;;;;0.32;0.32;;;;;;;18.50;40.65;98052.16;5087480;28;20131;-74
2023/05/19 10:59:32;;;;;;;0.40;0.40;;;;;;;18.48;40.02;98052.38;5110848;28;20045;-74
2023/05/19 11:02:03;;;;;;;0.50;0.50;;;;;;;18.18;40.62;98046.22;5093411;28;20510;-75
2023/05/19 11:04:46;;;;;;;0.32;0.32;;;;;;;18.14;40.62;98051.28;5112618;28;20075;-75
2023/05/19 11:07:20;;;;;;;0.10;0.10;;;;;;;18.09;40.69;98048.44;5106490;28;20456;-74
2023/05/19 11:09:51;;;;;;;0.40;0.40;;;;;;;18.13;40.61;98044.22;5094535;28;20036;-74
2023/05/19 11:12:22;;;;;;;0.38;0.38;;;;;;;18.21;40.59;98043.88;5101326;28;20123;-75
2023/05/19 11:14:52;;;;;;;0.40;0.40;;;;;;;18.27;40.39;98044.84;5111016;28;20051;-74
2023/05/19 11:17:22;;;;;;;0.32;0.32;;;;;;;18.36;40.35;98040.75;5112838;28;20440;-74
2023/05/19 11:19:54;;;;;;;0.60;0.60;;;;;;;18.29;39.98;98040.84;5114338;28;20082;-74
2023/05/19 11:22:24;;;;;;;0.40;0.40;;;;;;;18.23;40.17;98033.69;5112965;28;20039;-76
2023/05/19 11:24:54;;;;;;;0.30;0.30;;;;;;;18.17;40.15;98033.78;5101891;28;20115;-76
2023/05/19 11:27:29;;;;;;;0.50;0.50;;;;;;;18.31;40.40;98036.03;5101364;28;20040;-75
2023/05/19 11:29:59;;;;;;;0.50;0.50;;;;;;;18.50;40.49;98025.13;5081586;28;20176;-74
2023/05/19 11:32:32;;;;;;;0.00;0.00;;;;;;;18.60;40.04;98019.97;5112268;28;20422;-74
2023/05/19 11:35:00;;;;;;;0.32;0.32;;;;;;;18.55;40.16;98017.97;5112300;28;20040;-74
2023/05/19 11:37:28;;;;;;;0.50;0.50;;;;;;;18.62;40.20;98024.09;5106770;28;20514;-75
2023/05/19 11:39:57;;;;;;;0.40;0.40;;;;;;;18.75;40.01;98022.22;5111051;28;20043;-75
2023/05/19 11:42:25;;;;;;;0.30;0.30;;;;;;;18.80;40.23;98023.13;5105764;28;20040;-74
2023/05/19 11:44:56;;;;;;;0.30;0.30;;;;;;;19.03;39.95;98019.59;5103002;28;20532;-74
2023/05/19 11:47:23;;;;;;;0.40;0.40;;;;;;;19.05;39.67;98025.59;5110102;28;20028;-74